Terminal Aerodrome Forecast
Issued by NWS Memphis, TN

Home | Current Version | Previous Version | Text Only | Print | Product List | Glossary On
Versions: 1 2 3 4 5 6 7 8 9 10 11 12
000
FTUS44 KMEG 011720
TAFJBR
TAF
KJBR 011720Z 0118/0218 21006KT P6SM VCSH SCT040 BKN100
      TEMPO 0119/0123 5SM SHRA BKN040
     FM020000 22008KT P6SM VCSH SCT040 BKN100
     FM020900 21010KT P6SM VCTS SCT040CB OVC100
      TEMPO 0210/0214 3SM TSRA BKN040CB
     FM021400 20010G15KT P6SM -SHRA VCTS SCT025 BKN040CB=

USA.gov is the U.S. government's official web portal to all federal, state and local government web resources and services.